createdAt,value
2023-09-24T00:01:56.217Z,94430.78
2023-09-24T00:03:58.474Z,94432.88
2023-09-24T00:06:08.695Z,94426.94
2023-09-24T00:08:11.901Z,94435.22
2023-09-24T00:10:13.611Z,94430.19
2023-09-24T00:12:15.464Z,94439.16
2023-09-24T00:14:17.332Z,94428.22
2023-09-24T00:16:19.123Z,94433.72
2023-09-24T00:18:21.491Z,94433.72
2023-09-24T00:20:23.612Z,94437.94
2023-09-24T00:22:27.783Z,94448.53
2023-09-24T00:24:29.872Z,94445.63
2023-09-24T00:26:31.871Z,94437.28
2023-09-24T00:28:33.799Z,94437.19
2023-09-24T00:30:37.802Z,94451.81
2023-09-24T00:32:39.619Z,94451.28
2023-09-24T00:34:41.600Z,94451.97
2023-09-24T00:36:43.258Z,94455.13
2023-09-24T00:38:45.169Z,94461.50
2023-09-24T00:40:46.852Z,94453.25
2023-09-24T00:42:51.009Z,94461.84
2023-09-24T00:44:53.216Z,94459.03
2023-09-24T00:46:57.304Z,94456.19
2023-09-24T00:48:59.840Z,94463.47
2023-09-24T00:51:05.914Z,94451.78
2023-09-24T00:53:07.657Z,94443.19
2023-09-24T00:55:10.480Z,94444.78
2023-09-24T00:57:12.245Z,94441.59
2023-09-24T00:59:14.170Z,94442.28
2023-09-24T01:01:17.544Z,94438.22
2023-09-24T01:03:20.311Z,94438.97
2023-09-24T01:05:23.566Z,94433.69
2023-09-24T01:07:25.683Z,94427.50
2023-09-24T01:09:27.714Z,94440.63
2023-09-24T01:11:32.710Z,94430.44
2023-09-24T01:13:41.560Z,94429.31
2023-09-24T01:15:48.378Z,94429.88
2023-09-24T01:17:50.937Z,94434.38
2023-09-24T01:19:57.895Z,94437.03
2023-09-24T01:22:02.393Z,94425.09
2023-09-24T01:24:04.736Z,94424.38
2023-09-24T01:26:06.688Z,94421.88
2023-09-24T01:28:09.143Z,94418.84
2023-09-24T01:30:11.423Z,94419.19
2023-09-24T01:32:13.250Z,94410.69
2023-09-24T01:34:15.482Z,94400.03
2023-09-24T01:36:18.989Z,94406.44
2023-09-24T01:38:21.173Z,94405.84
2023-09-24T01:40:25.463Z,94405.28
2023-09-24T01:42:27.735Z,94407.84
2023-09-24T01:44:31.432Z,94408.19
2023-09-24T01:46:33.706Z,94403.69
2023-09-24T01:48:36.823Z,94402.63
2023-09-24T01:50:42.934Z,94397.28
2023-09-24T01:52:46.873Z,94394.19
2023-09-24T01:54:48.753Z,94396.03
2023-09-24T01:56:50.644Z,94397.66
2023-09-24T01:58:53.592Z,94400.75
2023-09-24T02:00:55.420Z,94387.09
2023-09-24T02:03:02.579Z,94393.47
2023-09-24T02:05:07.492Z,94387.56
2023-09-24T02:07:09.772Z,94389.44
2023-09-24T02:09:15.363Z,94387.81
2023-09-24T02:11:17.154Z,94392.59
2023-09-24T02:13:21.647Z,94397.09
2023-09-24T02:15:24.393Z,94396.78
2023-09-24T02:17:27.876Z,94400.72
2023-09-24T02:19:29.883Z,94400.38
2023-09-24T02:21:32.624Z,94399.25
2023-09-24T02:23:36.105Z,94394.97
2023-09-24T02:25:38.644Z,94407.16
2023-09-24T02:27:41.769Z,94412.13
2023-09-24T02:29:43.610Z,94408.09
2023-09-24T02:31:45.663Z,94413.03
2023-09-24T02:33:48.129Z,94401.31
2023-09-24T02:35:50.653Z,94399.59
2023-09-24T02:37:54.963Z,94395.41
2023-09-24T02:39:57.006Z,94407.81
2023-09-24T02:41:58.823Z,94410.56
2023-09-24T02:44:02.965Z,94411.50
2023-09-24T02:46:07.066Z,94408.94
2023-09-24T02:48:09.435Z,94404.53
2023-09-24T02:50:14.964Z,94416.13
2023-09-24T02:52:16.931Z,94402.38
2023-09-24T02:54:19.549Z,94405.25
2023-09-24T02:56:21.334Z,94406.06
2023-09-24T02:58:23.094Z,94409.56
2023-09-24T03:00:36.329Z,94406.06
2023-09-24T03:02:39.152Z,94417.16
2023-09-24T03:04:42.008Z,94410.22
2023-09-24T03:06:44.686Z,94401.56
2023-09-24T03:08:50.665Z,94405.03
2023-09-24T03:10:53.112Z,94413.03
2023-09-24T03:12:55.651Z,94406.75
2023-09-24T03:14:57.548Z,94414.16
2023-09-24T03:16:59.545Z,94414.16
2023-09-24T03:19:06.140Z,94411.06
2023-09-24T03:21:13.381Z,94415.91
2023-09-24T03:23:15.228Z,94401.31
2023-09-24T03:25:18.706Z,94411.16
2023-09-24T03:27:20.527Z,94412.53
2023-09-24T03:29:22.715Z,94414.03
2023-09-24T03:31:24.569Z,94417.75
2023-09-24T03:33:28.089Z,94421.72
2023-09-24T03:35:30.114Z,94426.56
2023-09-24T03:37:32.698Z,94414.38
2023-09-24T03:39:34.510Z,94421.09
2023-09-24T03:41:36.761Z,94409.13
2023-09-24T03:43:38.556Z,94408.91
2023-09-24T03:45:40.689Z,94408.31
2023-09-24T03:47:43.218Z,94415.63
2023-09-24T03:49:45.101Z,94420.84
2023-09-24T03:51:46.896Z,94421.78
2023-09-24T03:53:48.822Z,94422.72
2023-09-24T03:55:50.688Z,94424.91
2023-09-24T03:57:52.509Z,94427.13
2023-09-24T03:59:56.222Z,94416.22
2023-09-24T04:01:57.941Z,94422.16
2023-09-24T04:04:01.541Z,94428.53
2023-09-24T04:06:11.133Z,94428.84
2023-09-24T04:08:12.879Z,94437.44
2023-09-24T04:10:15.938Z,94438.25
2023-09-24T04:12:18.104Z,94436.38
2023-09-24T04:14:21.363Z,94438.88
2023-09-24T04:16:23.784Z,94451.94
2023-09-24T04:18:28.297Z,94459.31
2023-09-24T04:20:34.157Z,94474.34
2023-09-24T04:22:36.015Z,94481.34
2023-09-24T04:24:37.755Z,94497.22
2023-09-24T04:26:39.591Z,94497.22
2023-09-24T04:28:41.455Z,94492.19
2023-09-24T04:30:44.753Z,94496.53
2023-09-24T04:32:53.209Z,94496.41
2023-09-24T04:34:56.638Z,94496.63
2023-09-24T04:36:58.548Z,94498.25
2023-09-24T04:39:00.691Z,94491.59
2023-09-24T04:41:03.072Z,94491.00
2023-09-24T04:43:07.213Z,94498.97
2023-09-24T04:45:13.051Z,94495.72
2023-09-24T04:47:14.727Z,94497.41
2023-09-24T04:49:16.545Z,94502.75
2023-09-24T04:51:18.447Z,94496.09
2023-09-24T04:53:20.226Z,94492.56
2023-09-24T04:55:23.112Z,94496.41
2023-09-24T04:57:26.493Z,94489.34
2023-09-24T04:59:29.069Z,94487.63
2023-09-24T05:01:31.200Z,94497.38
2023-09-24T05:03:36.154Z,94495.31
2023-09-24T05:05:43.272Z,94491.81
2023-09-24T05:07:45.308Z,94486.63
2023-09-24T05:09:47.174Z,94482.22
2023-09-24T05:11:48.995Z,94493.59
2023-09-24T05:13:50.862Z,94488.28
2023-09-24T05:15:55.299Z,94481.09
2023-09-24T05:17:57.921Z,94492.69
2023-09-24T05:20:00.122Z,94494.66
2023-09-24T05:22:01.842Z,94483.13
2023-09-24T05:24:05.048Z,94497.50
2023-09-24T05:26:12.507Z,94498.09
2023-09-24T05:28:15.052Z,94490.88
2023-09-24T05:30:16.961Z,94506.53
2023-09-24T05:32:18.792Z,94501.22
2023-09-24T05:34:20.569Z,94508.41
2023-09-24T05:36:24.145Z,94512.09
2023-09-24T05:38:28.486Z,94514.53
2023-09-24T05:40:30.718Z,94515.13
2023-09-24T05:42:32.409Z,94510.44
2023-09-24T05:44:35.051Z,94506.47
2023-09-24T05:46:36.877Z,94508.34
2023-09-24T05:48:38.848Z,94513.69
2023-09-24T05:50:40.710Z,94509.47
2023-09-24T05:52:42.708Z,94514.47
2023-09-24T05:54:44.487Z,94512.72
2023-09-24T05:56:47.847Z,94517.25
2023-09-24T05:59:08.407Z,94518.50
2023-09-24T06:01:20.141Z,94519.44
2023-09-24T06:03:22.076Z,94519.63
2023-09-24T06:05:24.047Z,94528.50
2023-09-24T06:07:29.338Z,94519.84
2023-09-24T06:09:31.556Z,94522.84
2023-09-24T06:11:36.937Z,94517.06
2023-09-24T06:13:40.268Z,94513.72
2023-09-24T06:15:45.354Z,94526.78
2023-09-24T06:17:48.368Z,94521.34
2023-09-24T06:19:50.945Z,94520.50
2023-09-24T06:21:52.974Z,94522.38
2023-09-24T06:23:55.663Z,94525.38
2023-09-24T06:25:58.817Z,94516.53
2023-09-24T06:28:03.170Z,94519.31
2023-09-24T06:30:07.038Z,94522.88
2023-09-24T06:32:08.840Z,94509.25
2023-09-24T06:34:10.754Z,94513.50
2023-09-24T06:36:12.610Z,94517.88
2023-09-24T06:38:15.160Z,94522.72
2023-09-24T06:40:16.941Z,94521.34
2023-09-24T06:42:20.305Z,94511.53
2023-09-24T06:44:24.345Z,94528.69
2023-09-24T06:46:26.931Z,94519.88
2023-09-24T06:48:30.328Z,94518.50
2023-09-24T06:50:36.273Z,94530.69
2023-09-24T06:52:43.367Z,94521.88
2023-09-24T06:54:45.136Z,94519.31
2023-09-24T06:56:46.981Z,94516.53
2023-09-24T06:58:48.753Z,94523.31
2023-09-24T07:00:51.731Z,94514.94
2023-09-24T07:02:53.704Z,94508.22
2023-09-24T07:04:55.674Z,94517.03
2023-09-24T07:06:57.690Z,94517.84
2023-09-24T07:09:03.764Z,94508.94
2023-09-24T07:11:25.821Z,94508.94
2023-09-24T07:13:27.552Z,94511.44
2023-09-24T07:15:31.628Z,94506.34
2023-09-24T07:17:34.630Z,94513.53
2023-09-24T07:19:39.518Z,94518.41
2023-09-24T07:21:41.234Z,94509.53
2023-09-24T07:23:43.325Z,94517.84
2023-09-24T07:25:45.123Z,94520.25
2023-09-24T07:27:48.438Z,94519.25
2023-09-24T07:29:50.315Z,94521.69
2023-09-24T07:31:52.589Z,94526.06
2023-09-24T07:33:55.329Z,94525.09
2023-09-24T07:35:57.239Z,94522.94
2023-09-24T07:37:59.296Z,94521.75
2023-09-24T07:40:03.149Z,94519.00
2023-09-24T07:42:05.186Z,94522.22
2023-09-24T07:44:07.289Z,94504.91
2023-09-24T07:46:13.808Z,94508.75
2023-09-24T07:48:17.004Z,94515.72
2023-09-24T07:50:21.487Z,94515.72
2023-09-24T07:52:23.387Z,94507.31
2023-09-24T07:54:25.316Z,94503.94
2023-09-24T07:56:27.096Z,94512.66
2023-09-24T07:58:33.447Z,94515.22
2023-09-24T08:00:35.767Z,94512.75
2023-09-24T08:02:40.428Z,94501.44
2023-09-24T08:04:42.718Z,94494.34
2023-09-24T08:06:44.634Z,94485.91
2023-09-24T08:08:55.033Z,94491.97
2023-09-24T08:11:02.986Z,94490.47
2023-09-24T08:13:06.727Z,94493.50
2023-09-24T08:15:08.831Z,94489.56
2023-09-24T08:17:11.909Z,94486.44
2023-09-24T08:19:13.789Z,94490.25
2023-09-24T08:21:15.556Z,94476.03
2023-09-24T08:23:19.915Z,94472.38
2023-09-24T08:25:21.837Z,94469.50
2023-09-24T08:27:23.627Z,94475.78
2023-09-24T08:29:25.475Z,94475.06
2023-09-24T08:31:27.313Z,94471.38
2023-09-24T08:33:29.094Z,94468.63
2023-09-24T08:35:31.030Z,94462.72
2023-09-24T08:37:34.304Z,94462.34
2023-09-24T08:39:37.070Z,94461.34
2023-09-24T08:41:44.503Z,94461.34
2023-09-24T08:43:47.190Z,94455.75
2023-09-24T08:45:49.371Z,94462.25
2023-09-24T08:47:51.515Z,94458.53
2023-09-24T08:49:54.987Z,94453.41
2023-09-24T08:51:56.787Z,94460.13
2023-09-24T08:54:02.017Z,94455.16
2023-09-24T08:56:05.065Z,94451.69
2023-09-24T08:58:06.741Z,94446.25
2023-09-24T09:00:16.291Z,94452.41
2023-09-24T09:02:18.288Z,94452.22
2023-09-24T09:04:20.246Z,94453.88
2023-09-24T09:06:36.840Z,94453.94
2023-09-24T09:08:55.952Z,94450.81
2023-09-24T09:11:01.198Z,94454.28
2023-09-24T09:13:03.751Z,94456.75
2023-09-24T09:15:17.180Z,94452.44
2023-09-24T09:17:19.614Z,94456.72
2023-09-24T09:19:23.308Z,94447.81
2023-09-24T09:21:27.211Z,94450.25
2023-09-24T09:23:39.736Z,94451.25
2023-09-24T09:25:53.422Z,94448.28
2023-09-24T09:27:55.580Z,94452.91
2023-09-24T09:30:17.409Z,94457.28
2023-09-24T09:32:19.199Z,94462.44
2023-09-24T09:34:22.095Z,94448.53
2023-09-24T09:36:31.769Z,94452.56
2023-09-24T09:38:33.512Z,94451.25
2023-09-24T09:40:36.358Z,94451.56
2023-09-24T09:42:40.390Z,94452.56
2023-09-24T09:44:42.380Z,94453.66
2023-09-24T09:46:48.378Z,94449.91
2023-09-24T09:48:57.344Z,94456.41
2023-09-24T09:51:03.181Z,94459.13
2023-09-24T09:53:09.156Z,94457.50
2023-09-24T09:55:10.907Z,94457.81
2023-09-24T09:57:13.176Z,94452.19
2023-09-24T09:59:15.276Z,94462.38
2023-09-24T10:01:21.653Z,94457.81
2023-09-24T10:03:24.556Z,94462.16
2023-09-24T10:05:28.916Z,94460.00
2023-09-24T10:07:31.066Z,94456.78
2023-09-24T10:09:32.800Z,94451.13
2023-09-24T10:11:34.473Z,94454.59
2023-09-24T10:13:52.789Z,94446.28
2023-09-24T10:15:54.726Z,94446.81
2023-09-24T10:18:08.642Z,94442.50
2023-09-24T10:20:19.394Z,94448.44
2023-09-24T10:22:29.690Z,94447.63
2023-09-24T10:24:37.546Z,94441.72
2023-09-24T10:27:02.820Z,94446.28
2023-09-24T10:29:05.240Z,94437.38
2023-09-24T10:31:08.011Z,94439.28
2023-09-24T10:33:13.521Z,94440.06
2023-09-24T10:35:15.671Z,94439.56
2023-09-24T10:37:18.087Z,94437.38
2023-09-24T10:39:21.891Z,94437.94
2023-09-24T10:41:23.652Z,94436.06
2023-09-24T10:43:25.462Z,94435.50
2023-09-24T10:45:28.657Z,94426.94
2023-09-24T10:47:31.859Z,94433.91
2023-09-24T10:49:34.060Z,94428.81
2023-09-24T10:51:35.980Z,94430.69
2023-09-24T10:53:39.863Z,94425.31
2023-09-24T10:55:45.357Z,94428.78
2023-09-24T10:57:54.633Z,94422.06
2023-09-24T10:59:56.394Z,94419.34
2023-09-24T11:01:58.299Z,94418.00
2023-09-24T11:04:00.259Z,94413.97
2023-09-24T11:06:03.345Z,94412.59
2023-09-24T11:08:05.312Z,94423.09
2023-09-24T11:10:09.611Z,94412.88
2023-09-24T11:12:13.416Z,94415.84
2023-09-24T11:14:23.854Z,94403.16
2023-09-24T11:16:25.605Z,94406.69
2023-09-24T11:18:30.113Z,94408.00
2023-09-24T11:20:33.510Z,94411.50
2023-09-24T11:22:35.824Z,94407.75
2023-09-24T11:24:38.799Z,94412.06
2023-09-24T11:26:42.920Z,94409.06
2023-09-24T11:28:44.824Z,94411.53
2023-09-24T11:30:47.458Z,94413.91
2023-09-24T11:32:51.424Z,94416.09
2023-09-24T11:35:12.175Z,94413.38
2023-09-24T11:37:13.916Z,94418.47
2023-09-24T11:39:16.177Z,94430.34
2023-09-24T11:41:19.206Z,94424.41
2023-09-24T11:43:21.968Z,94430.59
2023-09-24T11:45:49.778Z,94435.69
2023-09-24T11:47:52.435Z,94435.47
2023-09-24T11:49:54.226Z,94435.97
2023-09-24T11:51:56.533Z,94427.91
2023-09-24T11:53:58.353Z,94428.72
2023-09-24T11:56:00.644Z,94428.50
2023-09-24T11:58:03.863Z,94423.13
2023-09-24T12:00:07.083Z,94429.03
2023-09-24T12:02:09.338Z,94429.56
2023-09-24T12:04:11.269Z,94430.69
2023-09-24T12:06:15.693Z,94431.47
2023-09-24T12:08:19.444Z,94430.69
2023-09-24T12:10:22.693Z,94423.94
2023-09-24T12:12:24.717Z,94426.09
2023-09-24T12:14:27.496Z,94430.91
2023-09-24T12:16:29.309Z,94418.28
2023-09-24T12:18:36.298Z,94416.16
2023-09-24T12:20:42.429Z,94413.19
2023-09-24T12:22:44.690Z,94420.19
2023-09-24T12:24:46.567Z,94414.53
2023-09-24T12:26:48.350Z,94427.97
2023-09-24T12:28:50.188Z,94424.22
2023-09-24T12:30:54.474Z,94427.72
2023-09-24T12:32:58.341Z,94431.47
2023-09-24T12:35:00.239Z,94435.50
2023-09-24T12:37:02.169Z,94426.63
2023-09-24T12:39:04.223Z,94419.38
2023-09-24T12:41:06.002Z,94420.44
2023-09-24T12:43:09.701Z,94432.03
2023-09-24T12:45:12.256Z,94436.56
2023-09-24T12:47:14.132Z,94436.56
2023-09-24T12:49:18.345Z,94427.97
2023-09-24T12:51:20.026Z,94438.19
2023-09-24T12:53:25.622Z,94437.91
2023-09-24T12:55:29.727Z,94449.22
2023-09-24T12:57:32.561Z,94434.69
2023-09-24T12:59:35.128Z,94424.75
2023-09-24T13:01:36.896Z,94410.78
2023-09-24T13:03:41.338Z,94401.09
2023-09-24T13:05:43.395Z,94399.72
2023-09-24T13:07:48.021Z,94409.13
2023-09-24T13:09:54.540Z,94409.13
2023-09-24T13:11:59.631Z,94422.00
2023-09-24T13:14:01.950Z,94427.88
2023-09-24T13:16:03.925Z,94426.53
2023-09-24T13:18:06.418Z,94432.97
2023-09-24T13:20:08.463Z,94439.97
2023-09-24T13:22:10.598Z,94437.00
2023-09-24T13:24:17.137Z,94440.75
2023-09-24T13:26:18.954Z,94440.50
2023-09-24T13:28:21.018Z,94442.94
2023-09-24T13:30:25.310Z,94443.75
2023-09-24T13:32:27.245Z,94443.22
2023-09-24T13:34:29.598Z,94448.09
2023-09-24T13:36:35.297Z,94459.09
2023-09-24T13:38:37.189Z,94470.38
2023-09-24T13:40:40.810Z,94465.78
2023-09-24T13:42:42.803Z,94466.03
2023-09-24T13:44:46.925Z,94454.72
2023-09-24T13:46:53.324Z,94443.16
2023-09-24T13:48:55.208Z,94445.81
2023-09-24T13:50:57.536Z,94453.88
2023-09-24T13:53:01.823Z,94451.44
2023-09-24T13:55:03.712Z,94454.94
2023-09-24T13:57:06.579Z,94460.81
2023-09-24T13:59:08.406Z,94464.03
2023-09-24T14:01:11.777Z,94467.47
2023-09-24T14:03:14.017Z,94478.22
2023-09-24T14:05:17.931Z,94477.16
2023-09-24T14:07:22.180Z,94473.63
2023-09-24T14:09:43.751Z,94464.47
2023-09-24T14:12:08.941Z,94451.84
2023-09-24T14:14:11.313Z,94452.84
2023-09-24T14:16:14.135Z,94458.72
2023-09-24T14:18:16.996Z,94468.06
2023-09-24T14:20:19.446Z,94469.38
2023-09-24T14:22:21.416Z,94470.72
2023-09-24T14:24:23.242Z,94483.56
2023-09-24T14:26:27.247Z,94493.19
2023-09-24T14:28:32.641Z,94495.84
2023-09-24T14:30:40.102Z,94502.00
2023-09-24T14:32:41.831Z,94503.31
2023-09-24T14:34:43.685Z,94498.75
2023-09-24T14:36:46.972Z,94489.31
2023-09-24T14:38:49.248Z,94489.03
2023-09-24T14:40:51.619Z,94493.53
2023-09-24T14:42:53.503Z,94506.16
2023-09-24T14:44:55.301Z,94520.59
2023-09-24T14:46:57.649Z,94529.41
2023-09-24T14:48:59.483Z,94530.19
2023-09-24T14:51:04.732Z,94516.66
2023-09-24T14:53:08.040Z,94513.34
2023-09-24T14:55:11.704Z,94509.47
2023-09-24T14:57:13.537Z,94520.72
2023-09-24T14:59:15.441Z,94512.13
2023-09-24T15:01:18.975Z,94499.38
2023-09-24T15:03:21.327Z,94489.78
2023-09-24T15:05:23.647Z,94486.44
2023-09-24T15:07:25.698Z,94484.44
2023-09-24T15:09:27.570Z,94477.06
2023-09-24T15:11:29.392Z,94470.63
2023-09-24T15:13:32.540Z,94468.56
2023-09-24T15:15:35.768Z,94475.69
2023-09-24T15:17:37.687Z,94485.50
2023-09-24T15:19:39.652Z,94484.75
2023-09-24T15:21:41.539Z,94481.28
2023-09-24T15:23:43.280Z,94479.13
2023-09-24T15:25:46.593Z,94462.09
2023-09-24T15:27:48.469Z,94457.75
2023-09-24T15:29:51.529Z,94448.13
2023-09-24T15:31:54.867Z,94469.19
2023-09-24T15:33:59.110Z,94482.00
2023-09-24T15:36:01.127Z,94479.44
2023-09-24T15:38:07.689Z,94478.06
2023-09-24T15:40:11.450Z,94478.47
2023-09-24T15:42:13.351Z,94474.44
2023-09-24T15:44:16.282Z,94470.34
2023-09-24T15:46:18.426Z,94480.22
2023-09-24T15:48:22.673Z,94479.72
2023-09-24T15:50:25.449Z,94479.78
2023-09-24T15:52:27.266Z,94490.38
2023-09-24T15:54:30.275Z,94471.69
2023-09-24T15:56:35.279Z,94479.13
2023-09-24T15:58:38.310Z,94478.53
2023-09-24T16:00:40.492Z,94474.16
2023-09-24T16:02:42.334Z,94476.31
2023-09-24T16:04:44.231Z,94474.72
2023-09-24T16:06:46.026Z,94467.75
2023-09-24T16:08:48.011Z,94465.22
2023-09-24T16:10:52.970Z,94463.84
2023-09-24T16:12:54.933Z,94464.91
2023-09-24T16:14:57.166Z,94462.78
2023-09-24T16:16:59.044Z,94461.75
2023-09-24T16:19:01.039Z,94462.91
2023-09-24T16:21:02.904Z,94460.00
2023-09-24T16:23:04.821Z,94455.75
2023-09-24T16:25:07.437Z,94455.31
2023-09-24T16:27:10.531Z,94449.75
2023-09-24T16:29:12.476Z,94451.13
2023-09-24T16:31:14.274Z,94455.66
2023-09-24T16:33:16.553Z,94451.34
2023-09-24T16:35:18.801Z,94444.84
2023-09-24T16:37:21.806Z,94442.56
2023-09-24T16:39:24.829Z,94435.84
2023-09-24T16:41:27.695Z,94434.72
2023-09-24T16:43:29.402Z,94434.97
2023-09-24T16:45:31.193Z,94433.66
2023-09-24T16:47:34.596Z,94435.53
2023-09-24T16:49:36.797Z,94429.38
2023-09-24T16:51:39.875Z,94425.66
2023-09-24T16:53:41.733Z,94435.78
2023-09-24T16:55:43.525Z,94438.91
2023-09-24T16:57:46.850Z,94443.09
2023-09-24T16:59:48.935Z,94446.03
2023-09-24T17:01:52.632Z,94447.00
2023-09-24T17:03:55.232Z,94448.59
2023-09-24T17:06:01.486Z,94446.50
2023-09-24T17:08:04.360Z,94451.03
2023-09-24T17:10:10.570Z,94450.47
2023-09-24T17:12:12.439Z,94456.53
2023-09-24T17:14:16.229Z,94451.19
2023-09-24T17:16:21.064Z,94456.03
2023-09-24T17:18:22.986Z,94454.28
2023-09-24T17:20:26.833Z,94456.72
2023-09-24T17:22:28.549Z,94460.78
2023-09-24T17:24:33.070Z,94461.56
2023-09-24T17:26:35.960Z,94460.28
2023-09-24T17:28:38.323Z,94463.78
2023-09-24T17:30:40.206Z,94464.91
2023-09-24T17:32:43.160Z,94458.28
2023-09-24T17:34:44.893Z,94463.84
2023-09-24T17:36:46.615Z,94470.00
2023-09-24T17:38:51.228Z,94471.38
2023-09-24T17:40:53.547Z,94467.91
2023-09-24T17:42:55.277Z,94468.47
2023-09-24T17:44:57.131Z,94462.91
2023-09-24T17:49:24.058Z,94472.44
2023-09-24T17:51:26.039Z,94472.34
2023-09-24T17:53:29.617Z,94472.81
2023-09-24T17:55:31.212Z,94480.38
2023-09-24T17:57:34.599Z,94473.97
2023-09-24T17:59:36.834Z,94486.81
2023-09-24T18:01:39.118Z,94472.66
2023-09-24T18:03:43.920Z,94467.91
2023-09-24T18:05:45.988Z,94472.19
2023-09-24T18:07:47.868Z,94464.44
2023-09-24T18:09:49.771Z,94462.25
2023-09-24T18:11:51.712Z,94464.81
2023-09-24T18:13:57.427Z,94456.16
2023-09-24T18:16:01.087Z,94479.69
2023-09-24T18:18:05.540Z,94478.81
2023-09-24T18:20:08.603Z,94484.94
2023-09-24T18:22:11.368Z,94480.47
2023-09-24T18:24:14.910Z,94474.41
2023-09-24T18:26:16.648Z,94472.72
2023-09-24T18:28:18.727Z,94474.09
2023-09-24T18:30:20.882Z,94475.03
2023-09-24T18:32:22.618Z,94481.41
2023-09-24T18:34:24.821Z,94486.19
2023-09-24T18:36:26.950Z,94486.09
2023-09-24T18:38:29.161Z,94489.94
2023-09-24T18:40:31.376Z,94488.09
2023-09-24T18:42:34.883Z,94486.69
2023-09-24T18:44:36.678Z,94484.25
2023-09-24T18:46:39.025Z,94484.38
2023-09-24T18:48:40.962Z,94487.72
2023-09-24T18:50:43.413Z,94490.19
2023-09-24T18:52:46.544Z,94497.59
2023-09-24T18:54:48.233Z,94494.81
2023-09-24T18:56:49.999Z,94494.47
2023-09-24T18:58:54.571Z,94491.00
2023-09-24T19:00:57.884Z,94497.38
2023-09-24T19:02:59.788Z,94494.59
2023-09-24T19:05:01.594Z,94487.88
2023-09-24T19:07:07.319Z,94497.94
2023-09-24T19:09:09.796Z,94497.38
2023-09-24T19:11:11.749Z,94494.56
2023-09-24T19:13:14.819Z,94500.13
2023-09-24T19:15:17.194Z,94495.63
2023-09-24T19:17:20.213Z,94499.47
2023-09-24T19:19:22.173Z,94505.81
2023-09-24T19:21:27.364Z,94509.16
2023-09-24T19:23:30.535Z,94521.00
2023-09-24T19:25:32.285Z,94514.06
2023-09-24T19:27:34.172Z,94518.91
2023-09-24T19:29:36.013Z,94525.06
2023-09-24T19:31:39.702Z,94527.13
2023-09-24T19:33:42.217Z,94534.91
2023-09-24T19:35:44.192Z,94534.69
2023-09-24T19:37:46.087Z,94524.94
2023-09-24T19:39:49.943Z,94532.81
2023-09-24T19:41:51.820Z,94535.47
2023-09-24T19:43:55.107Z,94540.69
2023-09-24T19:45:59.585Z,94550.44
2023-09-24T19:48:01.545Z,94554.25
2023-09-24T19:50:06.031Z,94557.16
2023-09-24T19:52:08.073Z,94568.41
2023-09-24T19:54:10.520Z,94577.81
2023-09-24T19:56:18.626Z,94585.34
2023-09-24T19:58:23.016Z,94581.72
2023-09-24T20:00:26.782Z,94586.16
2023-09-24T20:02:29.084Z,94588.81
2023-09-24T20:04:30.874Z,94588.34
2023-09-24T20:06:32.859Z,94581.75
2023-09-24T20:08:36.337Z,94585.69
2023-09-24T20:10:38.087Z,94579.31
2023-09-24T20:12:39.933Z,94581.84
2023-09-24T20:14:41.686Z,94590.44
2023-09-24T20:16:43.752Z,94586.81
2023-09-24T20:18:45.667Z,94592.22
2023-09-24T20:20:48.501Z,94607.34
2023-09-24T20:22:50.455Z,94620.34
2023-09-24T20:24:56.793Z,94614.66
2023-09-24T20:26:58.630Z,94606.91
2023-09-24T20:29:01.946Z,94603.88
2023-09-24T20:31:05.469Z,94598.34
2023-09-24T20:33:21.294Z,94592.22
2023-09-24T20:35:28.799Z,94596.03
2023-09-24T20:37:30.512Z,94600.59
2023-09-24T20:39:34.257Z,94600.28
2023-09-24T20:41:39.944Z,94605.25
2023-09-24T20:43:45.041Z,94594.25
2023-09-24T20:46:08.569Z,94597.50
2023-09-24T20:48:10.937Z,94606.09
2023-09-24T20:50:14.406Z,94596.22
2023-09-24T20:52:16.365Z,94594.97
2023-09-24T20:54:18.129Z,94597.06
2023-09-24T20:56:20.424Z,94595.91
2023-09-24T20:58:22.090Z,94600.75
2023-09-24T21:00:30.987Z,94594.97
2023-09-24T21:02:32.954Z,94606.22
2023-09-24T21:04:37.414Z,94610.41
2023-09-24T21:06:39.380Z,94606.22
2023-09-24T21:08:41.290Z,94596.34
2023-09-24T21:10:43.068Z,94604.13
2023-09-24T21:12:45.997Z,94604.94
2023-09-24T21:14:47.682Z,94605.53
2023-09-24T21:16:51.130Z,94598.09
2023-09-24T21:18:54.088Z,94593.34
2023-09-24T21:20:56.244Z,94596.59
2023-09-24T21:22:58.174Z,94596.13
2023-09-24T21:24:59.988Z,94601.59
2023-09-24T21:27:02.208Z,94598.56
2023-09-24T21:29:03.896Z,94598.91
2023-09-24T21:31:07.756Z,94598.09
2023-09-24T21:33:09.566Z,94607.59
2023-09-24T21:35:11.660Z,94597.53
2023-09-24T21:37:16.955Z,94602.41
2023-09-24T21:39:18.700Z,94614.22
2023-09-24T21:41:20.597Z,94616.69
2023-09-24T21:43:25.934Z,94615.97
2023-09-24T21:45:27.862Z,94619.34
2023-09-24T21:47:33.391Z,94623.88
2023-09-24T21:49:35.276Z,94614.47
2023-09-24T21:51:37.096Z,94617.94
2023-09-24T21:53:39.447Z,94625.75
2023-09-24T21:55:41.593Z,94627.34
2023-09-24T21:57:43.315Z,94626.06
2023-09-24T21:59:45.528Z,94629.00
2023-09-24T22:01:55.568Z,94631.41
2023-09-24T22:03:59.198Z,94627.00
2023-09-24T22:06:01.984Z,94637.31
2023-09-24T22:08:04.518Z,94638.75
2023-09-24T22:10:07.558Z,94630.47
2023-09-24T22:12:09.722Z,94631.75
2023-09-24T22:14:31.470Z,94638.03
2023-09-24T22:16:33.420Z,94634.44
2023-09-24T22:18:35.783Z,94636.97
2023-09-24T22:20:37.819Z,94641.28
2023-09-24T22:22:39.634Z,94633.16
2023-09-24T22:24:41.451Z,94640.09
2023-09-24T22:26:43.408Z,94626.53
2023-09-24T22:28:45.279Z,94632.44
2023-09-24T22:30:47.044Z,94631.84
2023-09-24T22:32:48.763Z,94626.75
2023-09-24T22:34:50.760Z,94639.16
2023-09-24T22:36:52.445Z,94629.63
2023-09-24T22:38:54.325Z,94640.31
2023-09-24T22:40:56.091Z,94631.97
2023-09-24T22:42:58.755Z,94639.50
2023-09-24T22:45:08.207Z,94634.16
2023-09-24T22:47:10.267Z,94636.97
2023-09-24T22:49:12.364Z,94636.97
2023-09-24T22:51:14.063Z,94636.59
2023-09-24T22:53:15.769Z,94626.25
2023-09-24T22:55:17.645Z,94635.78
2023-09-24T22:57:19.474Z,94628.13
2023-09-24T22:59:21.165Z,94623.94
2023-09-24T23:01:22.837Z,94639.50
2023-09-24T23:03:24.737Z,94634.16
2023-09-24T23:05:26.566Z,94638.94
2023-09-24T23:07:28.297Z,94635.69
2023-09-24T23:09:30.068Z,94643.91
2023-09-24T23:11:36.054Z,94650.31
2023-09-24T23:13:38.994Z,94650.06
2023-09-24T23:15:41.379Z,94652.63
2023-09-24T23:17:43.458Z,94650.31
2023-09-24T23:19:45.192Z,94647.06
2023-09-24T23:21:47.907Z,94643.81
2023-09-24T23:23:49.580Z,94644.97
2023-09-24T23:25:52.646Z,94651.94
2023-09-24T23:27:54.462Z,94650.34
2023-09-24T23:29:57.246Z,94658.34
2023-09-24T23:31:59.210Z,94661.22
2023-09-24T23:34:00.959Z,94654.69
2023-09-24T23:36:04.948Z,94653.44
2023-09-24T23:38:07.739Z,94649.25
2023-09-24T23:40:10.388Z,94656.44
2023-09-24T23:42:14.378Z,94651.78
2023-09-24T23:44:16.273Z,94653.06
2023-09-24T23:46:18.796Z,94652.06
2023-09-24T23:48:20.575Z,94655.28
2023-09-24T23:50:22.823Z,94658.41
2023-09-24T23:52:24.714Z,94655.97
2023-09-24T23:54:26.639Z,94660.50
2023-09-24T23:56:28.506Z,94663.53
2023-09-24T23:58:30.371Z,94661.66
